createdAt,value
2023-03-05T00:01:25.482Z,100.00
2023-03-05T00:03:54.550Z,100.00
2023-03-05T00:06:23.919Z,100.00
2023-03-05T00:08:55.201Z,100.00
2023-03-05T00:11:22.342Z,100.00
2023-03-05T00:13:53.054Z,100.00
2023-03-05T00:16:21.159Z,100.00
2023-03-05T00:18:48.704Z,100.00
2023-03-05T00:21:22.363Z,100.00
2023-03-05T00:23:50.696Z,100.00
2023-03-05T00:26:22.351Z,100.00
2023-03-05T00:28:50.376Z,100.00
2023-03-05T00:31:19.406Z,100.00
2023-03-05T00:33:46.589Z,100.00
2023-03-05T00:36:13.220Z,100.00
2023-03-05T00:38:39.878Z,100.00
2023-03-05T00:41:06.734Z,100.00
2023-03-05T00:43:33.405Z,100.00
2023-03-05T00:46:00.273Z,100.00
2023-03-05T00:48:27.066Z,100.00
2023-03-05T00:50:53.680Z,100.00
2023-03-05T00:53:20.532Z,100.00
2023-03-05T00:55:47.429Z,100.00
2023-03-05T00:58:14.873Z,100.00
2023-03-05T01:00:41.649Z,100.00
2023-03-05T01:03:08.479Z,100.00
2023-03-05T01:05:35.168Z,100.00
2023-03-05T01:08:02.172Z,100.00
2023-03-05T01:10:30.133Z,100.00
2023-03-05T01:12:57.614Z,100.00
2023-03-05T01:15:24.760Z,100.00
2023-03-05T01:17:51.471Z,100.00
2023-03-05T01:20:19.790Z,100.00
2023-03-05T01:22:46.632Z,100.00
2023-03-05T01:25:14.935Z,100.00
2023-03-05T01:27:41.617Z,100.00
2023-03-05T01:30:09.963Z,100.00
2023-03-05T01:32:37.119Z,100.00
2023-03-05T01:35:06.116Z,100.00
2023-03-05T01:37:32.796Z,100.00
2023-03-05T01:39:59.524Z,100.00
2023-03-05T01:42:26.224Z,100.00
2023-03-05T01:45:05.142Z,100.00
2023-03-05T01:47:31.914Z,100.00
2023-03-05T01:49:59.494Z,100.00
2023-03-05T01:52:29.671Z,100.00
2023-03-05T01:55:03.075Z,100.00
2023-03-05T01:57:52.576Z,100.00
2023-03-05T02:00:25.178Z,100.00
2023-03-05T02:02:52.872Z,100.00
2023-03-05T02:05:27.218Z,100.00
2023-03-05T02:08:03.708Z,100.00
2023-03-05T02:10:37.546Z,100.00
2023-03-05T02:13:10.569Z,100.00
2023-03-05T02:15:38.837Z,100.00
2023-03-05T02:18:07.472Z,100.00
2023-03-05T02:20:54.206Z,100.00
2023-03-05T02:23:22.261Z,100.00
2023-03-05T02:25:49.194Z,100.00
2023-03-05T02:28:26.222Z,100.00
2023-03-05T02:30:52.778Z,100.00
2023-03-05T02:33:20.433Z,100.00
2023-03-05T02:35:48.546Z,100.00
2023-03-05T02:38:18.043Z,100.00
2023-03-05T02:40:44.988Z,100.00
2023-03-05T02:43:13.117Z,100.00
2023-03-05T02:45:40.254Z,100.00
2023-03-05T02:48:07.491Z,100.00
2023-03-05T02:50:34.813Z,100.00
2023-03-05T02:53:02.297Z,100.00
2023-03-05T02:55:29.685Z,100.00
2023-03-05T02:57:56.614Z,100.00
2023-03-05T03:00:23.519Z,100.00
2023-03-05T03:02:50.357Z,100.00
2023-03-05T03:05:17.227Z,100.00
2023-03-05T03:07:43.824Z,100.00
2023-03-05T03:10:11.503Z,100.00
2023-03-05T03:12:39.958Z,100.00
2023-03-05T03:15:09.469Z,100.00
2023-03-05T03:17:37.232Z,100.00
2023-03-05T03:20:09.424Z,100.00
2023-03-05T03:22:37.128Z,100.00
2023-03-05T03:25:05.280Z,100.00
2023-03-05T03:27:32.109Z,100.00
2023-03-05T03:30:02.618Z,100.00
2023-03-05T03:32:29.520Z,100.00
2023-03-05T03:34:56.422Z,100.00
2023-03-05T03:37:23.148Z,100.00
2023-03-05T03:39:49.831Z,100.00
2023-03-05T03:42:21.052Z,100.00
2023-03-05T03:44:47.926Z,100.00
2023-03-05T03:47:14.834Z,100.00
2023-03-05T03:49:41.458Z,100.00
2023-03-05T03:52:08.744Z,100.00
2023-03-05T03:54:35.337Z,100.00
2023-03-05T03:57:01.903Z,100.00
2023-03-05T03:59:28.589Z,100.00
2023-03-05T04:01:55.363Z,100.00
2023-03-05T04:04:21.983Z,100.00
2023-03-05T04:06:48.811Z,100.00
2023-03-05T04:09:15.493Z,100.00
2023-03-05T04:11:42.023Z,100.00
2023-03-05T04:14:08.725Z,100.00
2023-03-05T04:16:35.417Z,100.00
2023-03-05T04:19:01.988Z,100.00
2023-03-05T04:21:29.751Z,100.00
2023-03-05T04:23:56.284Z,100.00
2023-03-05T04:26:23.010Z,100.00
2023-03-05T04:28:49.936Z,100.00
2023-03-05T04:31:17.267Z,100.00
2023-03-05T04:33:44.080Z,100.00
2023-03-05T04:36:10.704Z,100.00
2023-03-05T04:38:37.237Z,100.00
2023-03-05T04:41:04.226Z,100.00
2023-03-05T04:43:30.953Z,100.00
2023-03-05T04:45:57.790Z,100.00
2023-03-05T04:48:24.363Z,100.00
2023-03-05T04:50:51.361Z,100.00
2023-03-05T04:53:18.067Z,100.00
2023-03-05T04:55:44.685Z,100.00
2023-03-05T04:58:11.330Z,100.00
2023-03-05T05:00:39.069Z,100.00
2023-03-05T05:03:05.622Z,100.00
2023-03-05T05:05:32.589Z,100.00
2023-03-05T05:07:59.135Z,100.00
2023-03-05T05:10:26.624Z,100.00
2023-03-05T05:12:53.527Z,100.00
2023-03-05T05:15:20.842Z,100.00
2023-03-05T05:17:47.998Z,100.00
2023-03-05T05:20:16.489Z,100.00
2023-03-05T05:22:43.428Z,100.00
2023-03-05T05:25:10.500Z,100.00
2023-03-05T05:27:39.904Z,100.00
2023-03-05T05:30:07.794Z,100.00
2023-03-05T05:32:34.580Z,100.00
2023-03-05T05:35:01.130Z,100.00
2023-03-05T05:37:27.893Z,100.00
2023-03-05T05:39:54.938Z,100.00
2023-03-05T05:42:25.572Z,100.00
2023-03-05T05:44:52.276Z,100.00
2023-03-05T05:47:19.175Z,100.00
2023-03-05T05:49:45.902Z,100.00
2023-03-05T05:52:13.356Z,100.00
2023-03-05T05:54:40.192Z,100.00
2023-03-05T05:57:07.515Z,100.00
2023-03-05T05:59:34.259Z,100.00
2023-03-05T06:02:01.037Z,100.00
2023-03-05T06:04:27.972Z,100.00
2023-03-05T06:06:54.611Z,100.00
2023-03-05T06:09:21.198Z,100.00
2023-03-05T06:11:48.066Z,100.00
2023-03-05T06:14:14.719Z,100.00
2023-03-05T06:16:41.702Z,100.00
2023-03-05T06:19:11.986Z,100.00
2023-03-05T06:21:39.170Z,100.00
2023-03-05T06:24:06.659Z,100.00
2023-03-05T06:26:33.577Z,100.00
2023-03-05T06:29:00.425Z,100.00
2023-03-05T06:31:29.680Z,100.00
2023-03-05T06:34:01.129Z,100.00
2023-03-05T06:36:29.025Z,100.00
2023-03-05T06:38:56.674Z,100.00
2023-03-05T06:41:26.793Z,100.00
2023-03-05T06:43:54.613Z,100.00
2023-03-05T06:46:30.140Z,100.00
2023-03-05T06:48:59.432Z,100.00
2023-03-05T06:51:32.060Z,100.00
2023-03-05T06:54:04.534Z,100.00
2023-03-05T06:56:31.604Z,100.00
2023-03-05T06:58:59.490Z,100.00
2023-03-05T07:01:26.408Z,100.00
2023-03-05T07:03:55.269Z,100.00
2023-03-05T07:06:22.650Z,100.00
2023-03-05T07:08:50.022Z,100.00
2023-03-05T07:11:20.683Z,100.00
2023-03-05T07:13:48.445Z,100.00
2023-03-05T07:16:21.494Z,100.00
2023-03-05T07:18:48.926Z,100.00
2023-03-05T07:21:19.448Z,100.00
2023-03-05T07:23:46.203Z,100.00
2023-03-05T07:26:13.631Z,100.00
2023-03-05T07:28:40.501Z,100.00
2023-03-05T07:31:10.952Z,100.00
2023-03-05T07:33:37.535Z,100.00
2023-03-05T07:36:07.651Z,100.00
2023-03-05T07:38:34.735Z,100.00
2023-03-05T07:41:06.559Z,100.00
2023-03-05T07:43:33.379Z,100.00
2023-03-05T07:46:00.239Z,100.00
2023-03-05T07:48:26.946Z,100.00
2023-03-05T07:51:04.003Z,100.00
2023-03-05T07:53:31.100Z,100.00
2023-03-05T07:55:57.839Z,100.00
2023-03-05T07:58:25.014Z,100.00
2023-03-05T08:00:51.874Z,100.00
2023-03-05T08:03:18.887Z,100.00
2023-03-05T08:05:45.713Z,100.00
2023-03-05T08:08:12.867Z,100.00
2023-03-05T08:10:39.532Z,100.00
2023-03-05T08:13:06.182Z,100.00
2023-03-05T08:15:32.760Z,100.00
2023-03-05T08:18:00.011Z,100.00
2023-03-05T08:20:26.962Z,100.00
2023-03-05T08:22:53.750Z,100.00
2023-03-05T08:25:20.457Z,100.00
2023-03-05T08:27:48.634Z,100.00
2023-03-05T08:30:20.326Z,100.00
2023-03-05T08:32:48.260Z,100.00
2023-03-05T08:35:15.126Z,100.00
2023-03-05T08:37:41.664Z,100.00
2023-03-05T08:40:09.265Z,100.00
2023-03-05T08:42:35.959Z,100.00
2023-03-05T08:45:02.704Z,100.00
2023-03-05T08:47:29.397Z,100.00
2023-03-05T08:49:57.211Z,100.00
2023-03-05T08:52:24.620Z,100.00
2023-03-05T08:54:51.184Z,100.00
2023-03-05T08:57:17.979Z,100.00
2023-03-05T08:59:44.663Z,100.00
2023-03-05T09:02:13.400Z,100.00
2023-03-05T09:04:40.174Z,100.00
2023-03-05T09:07:06.981Z,100.00
2023-03-05T09:09:34.142Z,100.00
2023-03-05T09:12:01.631Z,100.00
2023-03-05T09:14:29.356Z,100.00
2023-03-05T09:16:57.969Z,100.00
2023-03-05T09:19:25.727Z,100.00
2023-03-05T09:21:53.237Z,100.00
2023-03-05T09:24:21.384Z,100.00
2023-03-05T09:26:48.064Z,100.00
2023-03-05T09:29:15.013Z,100.00
2023-03-05T09:31:43.351Z,100.00
2023-03-05T09:34:11.274Z,100.00
2023-03-05T09:36:37.849Z,100.00
2023-03-05T09:39:07.055Z,100.00
2023-03-05T09:41:58.680Z,100.00
2023-03-05T09:44:34.830Z,100.00
2023-03-05T09:47:01.568Z,100.00
2023-03-05T09:49:57.969Z,100.00
2023-03-05T09:52:39.158Z,100.00
2023-03-05T09:55:13.721Z,100.00
2023-03-05T09:57:45.685Z,100.00
2023-03-05T10:00:33.406Z,100.00
2023-03-05T10:03:06.573Z,100.00
2023-03-05T10:05:49.247Z,100.00
2023-03-05T10:08:21.094Z,100.00
2023-03-05T10:10:51.765Z,100.00
2023-03-05T10:13:25.172Z,100.00
2023-03-05T10:16:06.151Z,100.00
2023-03-05T10:18:46.938Z,100.00
2023-03-05T10:21:16.791Z,100.00
2023-03-05T10:24:14.422Z,100.00
2023-03-05T10:27:20.664Z,100.00
2023-03-05T10:30:21.993Z,100.00
2023-03-05T10:33:18.379Z,100.00
2023-03-05T10:36:25.297Z,100.00
2023-03-05T10:38:55.058Z,100.00
2023-03-05T10:41:40.488Z,100.00
2023-03-05T10:44:18.427Z,100.00
2023-03-05T10:46:47.629Z,100.00
2023-03-05T10:49:25.295Z,100.00
2023-03-05T10:51:59.489Z,100.00
2023-03-05T10:54:33.008Z,100.00
2023-03-05T10:57:24.546Z,100.00
2023-03-05T11:00:05.705Z,100.00
2023-03-05T11:02:33.011Z,100.00
2023-03-05T11:04:59.981Z,100.00
2023-03-05T11:07:26.551Z,100.00
2023-03-05T11:10:04.327Z,100.00
2023-03-05T11:12:38.405Z,100.00
2023-03-05T11:15:14.286Z,100.00
2023-03-05T11:17:47.832Z,100.00
2023-03-05T11:20:26.368Z,100.00
2023-03-05T11:23:03.907Z,100.00
2023-03-05T11:25:32.666Z,100.00
2023-03-05T11:28:02.170Z,100.00
2023-03-05T11:30:36.718Z,100.00
2023-03-05T11:33:10.488Z,100.00
2023-03-05T11:35:43.384Z,100.00
2023-03-05T11:38:23.706Z,100.00
2023-03-05T11:40:52.231Z,100.00
2023-03-05T11:43:21.177Z,100.00
2023-03-05T11:45:51.746Z,100.00
2023-03-05T11:48:25.378Z,100.00
2023-03-05T11:50:57.637Z,99.71
2023-03-05T11:53:29.170Z,98.95
2023-03-05T11:56:19.222Z,96.70
2023-03-05T11:59:14.517Z,93.21
2023-03-05T12:01:46.262Z,96.07
2023-03-05T12:04:13.584Z,95.17
2023-03-05T12:07:02.406Z,97.09
2023-03-05T12:09:44.383Z,94.90
2023-03-05T12:12:36.058Z,96.97
2023-03-05T12:15:09.079Z,90.32
2023-03-05T12:17:44.888Z,89.19
2023-03-05T12:20:28.177Z,90.71
2023-03-05T12:22:57.068Z,93.22
2023-03-05T12:25:47.244Z,94.08
2023-03-05T12:28:34.086Z,92.00
2023-03-05T12:31:04.770Z,95.15
2023-03-05T12:33:43.458Z,87.26
2023-03-05T12:36:22.328Z,88.06
2023-03-05T12:38:56.799Z,84.38
2023-03-05T12:41:23.481Z,88.50
2023-03-05T12:44:05.058Z,82.67
2023-03-05T12:46:36.123Z,84.37
2023-03-05T12:49:18.027Z,81.15
2023-03-05T12:51:46.077Z,78.31
2023-03-05T12:54:36.031Z,75.15
2023-03-05T12:57:24.824Z,75.29
2023-03-05T12:59:59.556Z,72.17
2023-03-05T13:02:34.779Z,70.94
2023-03-05T13:05:07.635Z,67.85
2023-03-05T13:07:34.336Z,66.04
2023-03-05T13:10:00.978Z,66.32
2023-03-05T13:12:29.842Z,67.64
2023-03-05T13:15:03.713Z,66.74
2023-03-05T13:17:33.849Z,66.54
2023-03-05T13:20:02.737Z,66.84
2023-03-05T13:22:29.397Z,69.28
2023-03-05T13:25:20.677Z,69.11
2023-03-05T13:27:47.423Z,70.60
2023-03-05T13:30:27.094Z,69.69
2023-03-05T13:33:02.799Z,70.51
2023-03-05T13:35:33.988Z,70.95
2023-03-05T13:38:02.217Z,70.84
2023-03-05T13:40:32.215Z,71.34
2023-03-05T13:43:13.598Z,75.93
2023-03-05T13:45:40.431Z,75.58
2023-03-05T13:48:07.508Z,75.42
2023-03-05T13:50:37.359Z,74.04
2023-03-05T13:53:16.194Z,74.91
2023-03-05T13:55:43.952Z,72.69
2023-03-05T13:58:48.186Z,74.57
2023-03-05T14:01:30.051Z,75.37
2023-03-05T14:04:03.445Z,78.28
2023-03-05T14:06:31.011Z,79.59
2023-03-05T14:09:19.407Z,74.24
2023-03-05T14:11:54.941Z,75.92
2023-03-05T14:14:23.528Z,74.43
2023-03-05T14:16:50.349Z,74.29
2023-03-05T14:19:36.139Z,75.16
2023-03-05T14:22:04.639Z,75.83
2023-03-05T14:24:32.367Z,75.36
2023-03-05T14:27:08.711Z,71.70
2023-03-05T14:29:36.264Z,73.60
2023-03-05T14:32:08.096Z,70.55
2023-03-05T14:34:42.037Z,73.43
2023-03-05T14:37:21.581Z,74.15
2023-03-05T14:39:54.810Z,76.86
2023-03-05T14:42:38.368Z,76.32
2023-03-05T14:45:26.637Z,77.17
2023-03-05T14:47:55.637Z,75.48
2023-03-05T14:50:26.537Z,76.42
2023-03-05T14:53:00.372Z,75.46
2023-03-05T14:55:31.605Z,73.78
2023-03-05T14:58:04.442Z,75.03
2023-03-05T15:00:31.780Z,75.15
2023-03-05T15:02:58.551Z,76.63
2023-03-05T15:05:25.325Z,78.70
2023-03-05T15:07:52.535Z,78.87
2023-03-05T15:10:23.206Z,83.58
2023-03-05T15:12:51.177Z,83.69
2023-03-05T15:15:19.854Z,80.87
2023-03-05T15:17:47.941Z,81.04
2023-03-05T15:20:22.914Z,81.98
2023-03-05T15:22:49.568Z,80.50
2023-03-05T15:25:16.897Z,81.71
2023-03-05T15:27:43.681Z,84.29
2023-03-05T15:30:21.268Z,85.21
2023-03-05T15:32:48.150Z,86.50
2023-03-05T15:35:14.790Z,87.42
2023-03-05T15:37:41.577Z,86.39
2023-03-05T15:40:09.111Z,86.39
2023-03-05T15:42:35.693Z,87.39
2023-03-05T15:45:02.753Z,86.77
2023-03-05T15:47:31.192Z,89.30
2023-03-05T15:49:59.693Z,90.90
2023-03-05T15:52:26.481Z,92.09
2023-03-05T15:54:53.101Z,92.64
2023-03-05T15:57:23.690Z,92.37
2023-03-05T15:59:50.502Z,94.19
2023-03-05T16:02:17.391Z,95.79
2023-03-05T16:04:44.450Z,95.80
2023-03-05T16:07:13.590Z,97.71
2023-03-05T16:09:48.287Z,97.95
2023-03-05T16:12:20.063Z,97.70
2023-03-05T16:14:49.749Z,97.99
2023-03-05T16:17:19.883Z,96.23
2023-03-05T16:19:49.709Z,97.30
2023-03-05T16:22:16.294Z,95.48
2023-03-05T16:24:43.093Z,96.19
2023-03-05T16:27:10.572Z,96.06
2023-03-05T16:29:37.262Z,96.00
2023-03-05T16:32:07.659Z,95.68
2023-03-05T16:34:34.849Z,97.05
2023-03-05T16:37:04.378Z,97.98
2023-03-05T16:39:31.142Z,98.54
2023-03-05T16:41:57.948Z,96.36
2023-03-05T16:44:24.916Z,96.30
2023-03-05T16:46:53.977Z,96.23
2023-03-05T16:49:21.310Z,95.19
2023-03-05T16:51:48.653Z,95.25
2023-03-05T16:54:15.394Z,95.15
2023-03-05T16:56:42.180Z,96.18
2023-03-05T16:59:08.810Z,96.81
2023-03-05T17:01:35.851Z,98.16
2023-03-05T17:04:03.015Z,98.34
2023-03-05T17:06:31.883Z,97.17
2023-03-05T17:08:59.230Z,97.56
2023-03-05T17:11:26.294Z,97.95
2023-03-05T17:13:53.228Z,100.00
2023-03-05T17:16:20.998Z,100.00
2023-03-05T17:18:48.374Z,100.00
2023-03-05T17:21:16.079Z,100.00
2023-03-05T17:23:42.922Z,100.00
2023-03-05T17:26:12.453Z,100.00
2023-03-05T17:28:39.548Z,100.00
2023-03-05T17:31:06.220Z,100.00
2023-03-05T17:33:34.069Z,100.00
2023-03-05T17:36:01.164Z,100.00
2023-03-05T17:38:28.132Z,100.00
2023-03-05T17:40:54.634Z,100.00
2023-03-05T17:43:21.980Z,100.00
2023-03-05T17:45:49.000Z,100.00
2023-03-05T17:48:16.156Z,100.00
2023-03-05T17:50:44.940Z,100.00
2023-03-05T17:53:12.226Z,100.00
2023-03-05T17:55:39.385Z,100.00
2023-03-05T17:58:06.071Z,98.16
2023-03-05T18:00:32.964Z,100.00
2023-03-05T18:03:26.426Z,100.00
2023-03-05T18:05:59.491Z,99.72
2023-03-05T18:08:26.060Z,100.00
2023-03-05T18:10:54.208Z,98.80
2023-03-05T18:13:20.741Z,100.00
2023-03-05T18:15:48.457Z,100.00
2023-03-05T18:18:17.110Z,100.00
2023-03-05T18:20:44.271Z,100.00
2023-03-05T18:23:11.601Z,100.00
2023-03-05T18:25:38.247Z,100.00
2023-03-05T18:28:07.624Z,100.00
2023-03-05T18:30:35.089Z,100.00
2023-03-05T18:33:02.092Z,100.00
2023-03-05T18:35:29.765Z,100.00
2023-03-05T18:37:57.086Z,100.00
2023-03-05T18:40:25.884Z,100.00
2023-03-05T18:42:52.738Z,100.00
2023-03-05T18:45:21.748Z,100.00
2023-03-05T18:47:49.125Z,100.00
2023-03-05T18:50:18.553Z,100.00
2023-03-05T18:52:45.931Z,100.00
2023-03-05T18:55:22.149Z,100.00
2023-03-05T18:57:49.369Z,100.00
2023-03-05T19:00:20.259Z,100.00
2023-03-05T19:02:47.363Z,100.00
2023-03-05T19:05:15.165Z,100.00
2023-03-05T19:07:42.279Z,100.00
2023-03-05T19:10:10.765Z,100.00
2023-03-05T19:12:49.169Z,100.00
2023-03-05T19:15:16.980Z,100.00
2023-03-05T19:17:43.731Z,100.00
2023-03-05T19:20:12.634Z,100.00
2023-03-05T19:22:40.164Z,100.00
2023-03-05T19:25:07.545Z,100.00
2023-03-05T19:27:34.478Z,100.00
2023-03-05T19:30:01.499Z,100.00
2023-03-05T19:32:28.378Z,100.00
2023-03-05T19:34:57.077Z,100.00
2023-03-05T19:37:24.850Z,100.00
2023-03-05T19:39:51.998Z,100.00
2023-03-05T19:42:19.151Z,100.00
2023-03-05T19:44:46.250Z,100.00
2023-03-05T19:47:12.988Z,100.00
2023-03-05T19:49:39.984Z,100.00
2023-03-05T19:52:07.033Z,100.00
2023-03-05T19:54:34.150Z,100.00
2023-03-05T19:57:01.009Z,100.00
2023-03-05T19:59:27.720Z,100.00
2023-03-05T20:01:54.409Z,100.00
2023-03-05T20:04:23.228Z,100.00
2023-03-05T20:06:49.818Z,100.00
2023-03-05T20:09:17.603Z,100.00
2023-03-05T20:11:46.433Z,100.00
2023-03-05T20:14:14.505Z,100.00
2023-03-05T20:16:41.880Z,100.00
2023-03-05T20:19:10.992Z,100.00
2023-03-05T20:21:41.106Z,100.00
2023-03-05T20:24:12.261Z,100.00
2023-03-05T20:26:41.321Z,100.00
2023-03-05T20:29:08.775Z,100.00
2023-03-05T20:31:37.161Z,100.00
2023-03-05T20:34:10.802Z,100.00
2023-03-05T20:36:37.779Z,100.00
2023-03-05T20:39:05.587Z,100.00
2023-03-05T20:41:34.564Z,100.00
2023-03-05T20:44:01.120Z,100.00
2023-03-05T20:46:31.442Z,100.00
2023-03-05T20:49:00.562Z,100.00
2023-03-05T20:51:32.174Z,100.00
2023-03-05T20:54:03.233Z,100.00
2023-03-05T20:56:32.464Z,100.00
2023-03-05T20:59:01.226Z,100.00
2023-03-05T21:01:28.307Z,100.00
2023-03-05T21:03:57.126Z,100.00
2023-03-05T21:06:25.172Z,100.00
2023-03-05T21:08:51.748Z,100.00
2023-03-05T21:11:18.910Z,100.00
2023-03-05T21:13:45.874Z,100.00
2023-03-05T21:16:22.654Z,100.00
2023-03-05T21:18:51.044Z,100.00
2023-03-05T21:21:18.912Z,100.00
2023-03-05T21:23:45.937Z,100.00
2023-03-05T21:26:13.512Z,100.00
2023-03-05T21:28:41.094Z,100.00
2023-03-05T21:31:17.954Z,100.00
2023-03-05T21:33:45.095Z,100.00
2023-03-05T21:36:11.889Z,100.00
2023-03-05T21:38:38.620Z,100.00
2023-03-05T21:41:06.054Z,100.00
2023-03-05T21:43:33.370Z,100.00
2023-03-05T21:46:01.216Z,100.00
2023-03-05T21:48:28.012Z,100.00
2023-03-05T21:50:55.430Z,100.00
2023-03-05T21:53:22.302Z,100.00
2023-03-05T21:56:04.232Z,100.00
2023-03-05T21:58:33.681Z,100.00
2023-03-05T22:01:00.446Z,100.00
2023-03-05T22:03:27.999Z,100.00
2023-03-05T22:05:55.009Z,100.00
2023-03-05T22:08:22.929Z,100.00
2023-03-05T22:10:49.831Z,100.00
2023-03-05T22:13:18.024Z,100.00
2023-03-05T22:15:45.728Z,100.00
2023-03-05T22:18:13.487Z,100.00
2023-03-05T22:20:40.798Z,100.00
2023-03-05T22:23:08.095Z,100.00
2023-03-05T22:25:35.110Z,100.00
2023-03-05T22:28:02.273Z,100.00
2023-03-05T22:30:28.867Z,100.00
2023-03-05T22:32:55.641Z,100.00
2023-03-05T22:35:22.721Z,100.00
2023-03-05T22:37:49.305Z,100.00
2023-03-05T22:40:19.412Z,100.00
2023-03-05T22:42:46.934Z,100.00
2023-03-05T22:45:16.901Z,100.00
2023-03-05T22:47:47.433Z,100.00
2023-03-05T22:50:14.314Z,100.00
2023-03-05T22:52:41.135Z,100.00
2023-03-05T22:55:08.173Z,100.00
2023-03-05T22:57:34.980Z,100.00
2023-03-05T23:00:01.615Z,100.00
2023-03-05T23:02:28.227Z,100.00
2023-03-05T23:04:57.754Z,100.00
2023-03-05T23:07:33.632Z,100.00
2023-03-05T23:10:14.360Z,100.00
2023-03-05T23:12:48.428Z,100.00
2023-03-05T23:15:18.287Z,100.00
2023-03-05T23:17:44.984Z,100.00
2023-03-05T23:20:16.688Z,100.00
2023-03-05T23:22:45.140Z,100.00
2023-03-05T23:25:13.599Z,100.00
2023-03-05T23:27:41.007Z,100.00
2023-03-05T23:30:19.625Z,100.00
2023-03-05T23:32:50.740Z,100.00
2023-03-05T23:35:28.581Z,100.00
2023-03-05T23:37:56.847Z,100.00
2023-03-05T23:40:26.461Z,100.00
2023-03-05T23:42:53.798Z,100.00
2023-03-05T23:45:22.041Z,100.00
2023-03-05T23:47:49.248Z,100.00
2023-03-05T23:50:18.804Z,100.00
2023-03-05T23:52:45.926Z,100.00
2023-03-05T23:55:27.584Z,100.00
2023-03-05T23:57:55.314Z,100.00
